sensor_id;sensor_type;location;lat;lon;timestamp;P1;durP1;ratioP1;P2;durP2;ratioP2
42110;SDS011;27766;52.174;5.456;2023-01-15T00:02:21;4.47;;;1.35;;
42110;SDS011;27766;52.174;5.456;2023-01-15T00:04:49;13.07;;;2.25;;
42110;SDS011;27766;52.174;5.456;2023-01-15T00:07:17;14.43;;;2.05;;
42110;SDS011;27766;52.174;5.456;2023-01-15T00:09:44;8.75;;;2.38;;
42110;SDS011;27766;52.174;5.456;2023-01-15T00:12:12;11.07;;;1.55;;
42110;SDS011;27766;52.174;5.456;2023-01-15T00:14:39;15.05;;;1.88;;
42110;SDS011;27766;52.174;5.456;2023-01-15T00:17:06;7.88;;;1.33;;
42110;SDS011;27766;52.174;5.456;2023-01-15T00:19:33;7.93;;;2.38;;
42110;SDS011;27766;52.174;5.456;2023-01-15T00:22:00;7.63;;;1.33;;
42110;SDS011;27766;52.174;5.456;2023-01-15T00:24:28;6.38;;;1.52;;
42110;SDS011;27766;52.174;5.456;2023-01-15T00:27:13;8.15;;;1.52;;
42110;SDS011;27766;52.174;5.456;2023-01-15T00:29:59;7.40;;;1.77;;
42110;SDS011;27766;52.174;5.456;2023-01-15T00:32:26;4.78;;;1.35;;
42110;SDS011;27766;52.174;5.456;2023-01-15T00:34:56;8.23;;;1.92;;
42110;SDS011;27766;52.174;5.456;2023-01-15T00:37:24;9.55;;;2.03;;
42110;SDS011;27766;52.174;5.456;2023-01-15T00:39:52;13.32;;;2.17;;
42110;SDS011;27766;52.174;5.456;2023-01-15T00:42:19;10.00;;;2.25;;
42110;SDS011;27766;52.174;5.456;2023-01-15T00:44:46;6.57;;;2.00;;
42110;SDS011;27766;52.174;5.456;2023-01-15T00:47:13;11.43;;;1.73;;
42110;SDS011;27766;52.174;5.456;2023-01-15T00:49:41;6.90;;;1.50;;
42110;SDS011;27766;52.174;5.456;2023-01-15T00:52:09;12.02;;;2.42;;
42110;SDS011;27766;52.174;5.456;2023-01-15T00:54:36;8.13;;;1.90;;
42110;SDS011;27766;52.174;5.456;2023-01-15T00:57:03;13.88;;;2.38;;
42110;SDS011;27766;52.174;5.456;2023-01-15T00:59:31;5.30;;;1.70;;
42110;SDS011;27766;52.174;5.456;2023-01-15T01:01:58;9.48;;;1.83;;
42110;SDS011;27766;52.174;5.456;2023-01-15T01:04:25;6.40;;;1.50;;
42110;SDS011;27766;52.174;5.456;2023-01-15T01:06:52;11.60;;;2.17;;
42110;SDS011;27766;52.174;5.456;2023-01-15T01:09:19;10.50;;;2.10;;
42110;SDS011;27766;52.174;5.456;2023-01-15T01:11:48;5.22;;;1.73;;
42110;SDS011;27766;52.174;5.456;2023-01-15T01:14:15;14.32;;;2.97;;
42110;SDS011;27766;52.174;5.456;2023-01-15T01:16:42;15.32;;;2.30;;
42110;SDS011;27766;52.174;5.456;2023-01-15T01:19:11;8.93;;;1.95;;
42110;SDS011;27766;52.174;5.456;2023-01-15T01:21:40;12.27;;;1.88;;
42110;SDS011;27766;52.174;5.456;2023-01-15T01:24:12;9.27;;;2.13;;
42110;SDS011;27766;52.174;5.456;2023-01-15T01:26:44;5.22;;;1.90;;
42110;SDS011;27766;52.174;5.456;2023-01-15T01:29:17;9.68;;;2.45;;
42110;SDS011;27766;52.174;5.456;2023-01-15T01:31:47;10.18;;;2.40;;
42110;SDS011;27766;52.174;5.456;2023-01-15T01:34:14;10.15;;;1.98;;
42110;SDS011;27766;52.174;5.456;2023-01-15T01:36:42;13.23;;;1.95;;
42110;SDS011;27766;52.174;5.456;2023-01-15T01:39:13;7.88;;;2.17;;
42110;SDS011;27766;52.174;5.456;2023-01-15T01:41:42;12.18;;;1.83;;
42110;SDS011;27766;52.174;5.456;2023-01-15T01:47:02;6.80;;;1.67;;
42110;SDS011;27766;52.174;5.456;2023-01-15T01:49:32;8.20;;;2.08;;
42110;SDS011;27766;52.174;5.456;2023-01-15T01:52:01;11.43;;;2.05;;
42110;SDS011;27766;52.174;5.456;2023-01-15T01:54:33;8.23;;;2.22;;
42110;SDS011;27766;52.174;5.456;2023-01-15T01:57:02;8.15;;;2.25;;
42110;SDS011;27766;52.174;5.456;2023-01-15T01:59:31;10.98;;;2.20;;
42110;SDS011;27766;52.174;5.456;2023-01-15T02:01:58;6.47;;;1.85;;
42110;SDS011;27766;52.174;5.456;2023-01-15T02:04:26;5.53;;;1.65;;
42110;SDS011;27766;52.174;5.456;2023-01-15T02:06:55;16.33;;;1.85;;
42110;SDS011;27766;52.174;5.456;2023-01-15T02:09:24;8.02;;;2.30;;
42110;SDS011;27766;52.174;5.456;2023-01-15T02:11:51;11.80;;;1.90;;
42110;SDS011;27766;52.174;5.456;2023-01-15T02:17:13;7.87;;;1.10;;
42110;SDS011;27766;52.174;5.456;2023-01-15T02:19:55;6.00;;;1.77;;
42110;SDS011;27766;52.174;5.456;2023-01-15T02:31:26;4.63;;;1.83;;
42110;SDS011;27766;52.174;5.456;2023-01-15T02:34:19;11.10;;;2.00;;
42110;SDS011;27766;52.174;5.456;2023-01-15T02:36:55;11.65;;;2.30;;
42110;SDS011;27766;52.174;5.456;2023-01-15T02:41:54;7.38;;;1.90;;
42110;SDS011;27766;52.174;5.456;2023-01-15T02:44:26;8.88;;;2.13;;
42110;SDS011;27766;52.174;5.456;2023-01-15T02:46:56;9.00;;;1.27;;
42110;SDS011;27766;52.174;5.456;2023-01-15T02:49:25;15.20;;;2.30;;
42110;SDS011;27766;52.174;5.456;2023-01-15T02:51:54;12.38;;;1.83;;
42110;SDS011;27766;52.174;5.456;2023-01-15T02:54:27;9.68;;;2.03;;
42110;SDS011;27766;52.174;5.456;2023-01-15T02:56:58;8.73;;;1.45;;
42110;SDS011;27766;52.174;5.456;2023-01-15T02:59:29;14.75;;;2.30;;
42110;SDS011;27766;52.174;5.456;2023-01-15T03:02:04;10.63;;;1.80;;
42110;SDS011;27766;52.174;5.456;2023-01-15T03:07:11;5.90;;;1.52;;
42110;SDS011;27766;52.174;5.456;2023-01-15T03:09:40;5.63;;;1.48;;
42110;SDS011;27766;52.174;5.456;2023-01-15T03:12:13;9.43;;;1.30;;
42110;SDS011;27766;52.174;5.456;2023-01-15T03:15:10;7.07;;;1.75;;
42110;SDS011;27766;52.174;5.456;2023-01-15T03:18:03;3.70;;;1.27;;
42110;SDS011;27766;52.174;5.456;2023-01-15T03:20:34;11.40;;;1.52;;
42110;SDS011;27766;52.174;5.456;2023-01-15T03:23:07;4.50;;;1.38;;
42110;SDS011;27766;52.174;5.456;2023-01-15T03:25:42;5.57;;;1.08;;
42110;SDS011;27766;52.174;5.456;2023-01-15T03:28:14;4.93;;;1.13;;
42110;SDS011;27766;52.174;5.456;2023-01-15T03:30:46;10.48;;;1.52;;
42110;SDS011;27766;52.174;5.456;2023-01-15T03:33:14;8.63;;;1.90;;
42110;SDS011;27766;52.174;5.456;2023-01-15T03:35:43;7.03;;;1.05;;
42110;SDS011;27766;52.174;5.456;2023-01-15T03:38:14;9.63;;;1.48;;
42110;SDS011;27766;52.174;5.456;2023-01-15T03:40:47;5.50;;;1.92;;
42110;SDS011;27766;52.174;5.456;2023-01-15T03:43:40;7.50;;;1.67;;
42110;SDS011;27766;52.174;5.456;2023-01-15T03:46:29;11.32;;;1.65;;
42110;SDS011;27766;52.174;5.456;2023-01-15T03:51:41;11.23;;;1.77;;
42110;SDS011;27766;52.174;5.456;2023-01-15T03:54:26;14.38;;;2.40;;
42110;SDS011;27766;52.174;5.456;2023-01-15T03:57:03;8.63;;;1.40;;
42110;SDS011;27766;52.174;5.456;2023-01-15T03:59:37;12.32;;;2.15;;
42110;SDS011;27766;52.174;5.456;2023-01-15T04:02:07;12.38;;;1.35;;
42110;SDS011;27766;52.174;5.456;2023-01-15T04:04:37;10.88;;;2.08;;
42110;SDS011;27766;52.174;5.456;2023-01-15T04:07:05;6.25;;;2.08;;
42110;SDS011;27766;52.174;5.456;2023-01-15T04:09:37;7.25;;;2.05;;
42110;SDS011;27766;52.174;5.456;2023-01-15T04:12:05;9.98;;;1.55;;
42110;SDS011;27766;52.174;5.456;2023-01-15T04:14:33;18.20;;;2.10;;
42110;SDS011;27766;52.174;5.456;2023-01-15T04:17:02;4.75;;;1.02;;
42110;SDS011;27766;52.174;5.456;2023-01-15T04:19:29;8.55;;;1.48;;
42110;SDS011;27766;52.174;5.456;2023-01-15T04:21:56;8.18;;;2.00;;
42110;SDS011;27766;52.174;5.456;2023-01-15T04:24:23;9.07;;;1.42;;
42110;SDS011;27766;52.174;5.456;2023-01-15T04:26:50;10.57;;;1.65;;
42110;SDS011;27766;52.174;5.456;2023-01-15T04:29:17;9.57;;;2.03;;
42110;SDS011;27766;52.174;5.456;2023-01-15T04:31:45;4.38;;;1.63;;
42110;SDS011;27766;52.174;5.456;2023-01-15T04:34:12;6.50;;;1.65;;
42110;SDS011;27766;52.174;5.456;2023-01-15T04:36:39;10.35;;;1.60;;
42110;SDS011;27766;52.174;5.456;2023-01-15T04:39:06;8.52;;;1.60;;
42110;SDS011;27766;52.174;5.456;2023-01-15T04:41:33;9.85;;;1.95;;
42110;SDS011;27766;52.174;5.456;2023-01-15T04:44:19;20.50;;;2.03;;
42110;SDS011;27766;52.174;5.456;2023-01-15T04:46:46;12.48;;;1.67;;
42110;SDS011;27766;52.174;5.456;2023-01-15T04:49:15;8.00;;;1.88;;
42110;SDS011;27766;52.174;5.456;2023-01-15T04:51:43;8.25;;;1.38;;
42110;SDS011;27766;52.174;5.456;2023-01-15T04:54:12;11.35;;;1.15;;
42110;SDS011;27766;52.174;5.456;2023-01-15T04:56:41;6.55;;;1.70;;
42110;SDS011;27766;52.174;5.456;2023-01-15T04:59:11;9.40;;;1.85;;
42110;SDS011;27766;52.174;5.456;2023-01-15T05:01:39;8.20;;;2.05;;
42110;SDS011;27766;52.174;5.456;2023-01-15T05:04:20;5.32;;;1.52;;
42110;SDS011;27766;52.174;5.456;2023-01-15T05:06:47;6.90;;;1.50;;
42110;SDS011;27766;52.174;5.456;2023-01-15T05:09:15;4.93;;;1.52;;
42110;SDS011;27766;52.174;5.456;2023-01-15T05:11:42;10.52;;;1.70;;
42110;SDS011;27766;52.174;5.456;2023-01-15T05:14:09;8.05;;;2.15;;
42110;SDS011;27766;52.174;5.456;2023-01-15T05:16:37;16.63;;;1.77;;
42110;SDS011;27766;52.174;5.456;2023-01-15T05:19:04;5.65;;;1.77;;
42110;SDS011;27766;52.174;5.456;2023-01-15T05:21:34;6.57;;;1.83;;
42110;SDS011;27766;52.174;5.456;2023-01-15T05:24:04;5.50;;;1.90;;
42110;SDS011;27766;52.174;5.456;2023-01-15T05:26:36;5.28;;;1.73;;
42110;SDS011;27766;52.174;5.456;2023-01-15T05:29:03;7.43;;;1.63;;
42110;SDS011;27766;52.174;5.456;2023-01-15T05:31:31;5.43;;;1.88;;
42110;SDS011;27766;52.174;5.456;2023-01-15T05:34:04;8.98;;;1.60;;
42110;SDS011;27766;52.174;5.456;2023-01-15T05:36:35;6.90;;;1.67;;
42110;SDS011;27766;52.174;5.456;2023-01-15T05:39:03;6.95;;;1.60;;
42110;SDS011;27766;52.174;5.456;2023-01-15T05:41:31;12.35;;;2.17;;
42110;SDS011;27766;52.174;5.456;2023-01-15T05:44:21;5.63;;;1.42;;
42110;SDS011;27766;52.174;5.456;2023-01-15T05:46:50;14.20;;;1.40;;
42110;SDS011;27766;52.174;5.456;2023-01-15T05:49:20;8.82;;;1.98;;
42110;SDS011;27766;52.174;5.456;2023-01-15T05:51:49;19.45;;;1.52;;
42110;SDS011;27766;52.174;5.456;2023-01-15T05:54:19;14.73;;;2.03;;
42110;SDS011;27766;52.174;5.456;2023-01-15T05:56:48;13.80;;;1.77;;
42110;SDS011;27766;52.174;5.456;2023-01-15T05:59:16;5.43;;;1.55;;
42110;SDS011;27766;52.174;5.456;2023-01-15T06:01:45;7.40;;;2.05;;
42110;SDS011;27766;52.174;5.456;2023-01-15T06:04:12;9.20;;;1.40;;
42110;SDS011;27766;52.174;5.456;2023-01-15T06:06:47;7.60;;;1.90;;
42110;SDS011;27766;52.174;5.456;2023-01-15T06:09:15;5.47;;;1.60;;
42110;SDS011;27766;52.174;5.456;2023-01-15T06:11:42;12.82;;;1.88;;
42110;SDS011;27766;52.174;5.456;2023-01-15T06:14:10;7.63;;;1.75;;
42110;SDS011;27766;52.174;5.456;2023-01-15T06:16:38;4.55;;;1.42;;
42110;SDS011;27766;52.174;5.456;2023-01-15T06:19:07;14.80;;;1.35;;
42110;SDS011;27766;52.174;5.456;2023-01-15T06:21:37;8.98;;;1.70;;
42110;SDS011;27766;52.174;5.456;2023-01-15T06:24:04;8.20;;;1.65;;
42110;SDS011;27766;52.174;5.456;2023-01-15T06:26:32;7.68;;;1.35;;
42110;SDS011;27766;52.174;5.456;2023-01-15T06:28:59;8.45;;;1.42;;
42110;SDS011;27766;52.174;5.456;2023-01-15T06:31:26;5.47;;;1.48;;
42110;SDS011;27766;52.174;5.456;2023-01-15T06:33:54;5.95;;;1.08;;
42110;SDS011;27766;52.174;5.456;2023-01-15T06:36:24;10.40;;;2.17;;
42110;SDS011;27766;52.174;5.456;2023-01-15T06:38:52;12.40;;;3.92;;
42110;SDS011;27766;52.174;5.456;2023-01-15T06:41:20;7.80;;;2.65;;
42110;SDS011;27766;52.174;5.456;2023-01-15T06:44:13;14.07;;;1.50;;
42110;SDS011;27766;52.174;5.456;2023-01-15T06:47:16;12.13;;;2.70;;
42110;SDS011;27766;52.174;5.456;2023-01-15T06:49:56;5.57;;;1.67;;
42110;SDS011;27766;52.174;5.456;2023-01-15T06:52:24;10.82;;;1.65;;
42110;SDS011;27766;52.174;5.456;2023-01-15T06:54:53;12.52;;;2.55;;
42110;SDS011;27766;52.174;5.456;2023-01-15T06:57:21;6.45;;;1.02;;
42110;SDS011;27766;52.174;5.456;2023-01-15T06:59:49;9.68;;;1.70;;
42110;SDS011;27766;52.174;5.456;2023-01-15T07:02:16;4.78;;;1.40;;
42110;SDS011;27766;52.174;5.456;2023-01-15T07:04:44;16.33;;;1.73;;
42110;SDS011;27766;52.174;5.456;2023-01-15T07:07:19;5.85;;;1.42;;
42110;SDS011;27766;52.174;5.456;2023-01-15T07:09:48;7.07;;;1.88;;
42110;SDS011;27766;52.174;5.456;2023-01-15T07:12:16;5.50;;;1.60;;
42110;SDS011;27766;52.174;5.456;2023-01-15T07:14:43;5.75;;;1.85;;
42110;SDS011;27766;52.174;5.456;2023-01-15T07:17:11;3.70;;;1.15;;
42110;SDS011;27766;52.174;5.456;2023-01-15T07:19:38;9.90;;;1.35;;
42110;SDS011;27766;52.174;5.456;2023-01-15T07:22:08;5.22;;;1.67;;
42110;SDS011;27766;52.174;5.456;2023-01-15T07:24:35;2.17;;;0.88;;
42110;SDS011;27766;52.174;5.456;2023-01-15T07:27:03;3.67;;;0.73;;
42110;SDS011;27766;52.174;5.456;2023-01-15T07:29:30;13.10;;;1.35;;
42110;SDS011;27766;52.174;5.456;2023-01-15T07:31:57;10.00;;;2.42;;
42110;SDS011;27766;52.174;5.456;2023-01-15T07:34:24;14.27;;;2.53;;
42110;SDS011;27766;52.174;5.456;2023-01-15T07:36:52;9.32;;;2.20;;
42110;SDS011;27766;52.174;5.456;2023-01-15T07:39:19;6.90;;;1.70;;
42110;SDS011;27766;52.174;5.456;2023-01-15T07:41:46;11.50;;;2.70;;
42110;SDS011;27766;52.174;5.456;2023-01-15T07:44:32;11.23;;;3.05;;
42110;SDS011;27766;52.174;5.456;2023-01-15T07:47:22;3.42;;;1.45;;
42110;SDS011;27766;52.174;5.456;2023-01-15T07:50:11;8.13;;;2.00;;
42110;SDS011;27766;52.174;5.456;2023-01-15T07:52:49;8.98;;;1.75;;
42110;SDS011;27766;52.174;5.456;2023-01-15T07:55:19;8.15;;;1.42;;
42110;SDS011;27766;52.174;5.456;2023-01-15T07:57:47;11.45;;;1.85;;
42110;SDS011;27766;52.174;5.456;2023-01-15T08:00:18;5.55;;;1.58;;
42110;SDS011;27766;52.174;5.456;2023-01-15T08:02:46;4.35;;;1.48;;
42110;SDS011;27766;52.174;5.456;2023-01-15T08:05:16;3.65;;;1.33;;
42110;SDS011;27766;52.174;5.456;2023-01-15T08:07:44;6.60;;;1.58;;
42110;SDS011;27766;52.174;5.456;2023-01-15T08:10:14;4.68;;;1.13;;
42110;SDS011;27766;52.174;5.456;2023-01-15T08:12:41;10.25;;;1.75;;
42110;SDS011;27766;52.174;5.456;2023-01-15T08:15:28;7.90;;;1.50;;
42110;SDS011;27766;52.174;5.456;2023-01-15T08:17:59;8.25;;;1.30;;
42110;SDS011;27766;52.174;5.456;2023-01-15T08:20:26;8.13;;;1.35;;
42110;SDS011;27766;52.174;5.456;2023-01-15T08:22:53;8.60;;;1.33;;
42110;SDS011;27766;52.174;5.456;2023-01-15T08:25:21;13.70;;;1.75;;
42110;SDS011;27766;52.174;5.456;2023-01-15T08:27:52;7.97;;;1.35;;
42110;SDS011;27766;52.174;5.456;2023-01-15T08:30:21;8.43;;;1.65;;
42110;SDS011;27766;52.174;5.456;2023-01-15T08:32:50;6.50;;;1.92;;
42110;SDS011;27766;52.174;5.456;2023-01-15T08:35:17;8.05;;;1.73;;
42110;SDS011;27766;52.174;5.456;2023-01-15T08:37:45;10.75;;;2.15;;
42110;SDS011;27766;52.174;5.456;2023-01-15T08:40:12;9.00;;;1.55;;
42110;SDS011;27766;52.174;5.456;2023-01-15T08:42:39;6.85;;;1.48;;
42110;SDS011;27766;52.174;5.456;2023-01-15T08:45:07;6.63;;;1.55;;
42110;SDS011;27766;52.174;5.456;2023-01-15T08:47:35;9.93;;;1.08;;
42110;SDS011;27766;52.174;5.456;2023-01-15T08:50:04;9.63;;;2.05;;
42110;SDS011;27766;52.174;5.456;2023-01-15T08:52:34;10.93;;;1.85;;
42110;SDS011;27766;52.174;5.456;2023-01-15T08:55:02;9.57;;;1.80;;
42110;SDS011;27766;52.174;5.456;2023-01-15T08:57:29;8.13;;;1.20;;
42110;SDS011;27766;52.174;5.456;2023-01-15T08:59:56;7.97;;;1.70;;
42110;SDS011;27766;52.174;5.456;2023-01-15T09:02:23;11.10;;;2.35;;
42110;SDS011;27766;52.174;5.456;2023-01-15T09:04:50;11.07;;;1.50;;
42110;SDS011;27766;52.174;5.456;2023-01-15T09:07:19;3.60;;;1.27;;
42110;SDS011;27766;52.174;5.456;2023-01-15T09:09:46;4.75;;;1.60;;
42110;SDS011;27766;52.174;5.456;2023-01-15T09:12:13;13.20;;;1.35;;
42110;SDS011;27766;52.174;5.456;2023-01-15T09:14:41;11.57;;;1.83;;
42110;SDS011;27766;52.174;5.456;2023-01-15T09:17:27;4.18;;;1.40;;
42110;SDS011;27766;52.174;5.456;2023-01-15T09:19:54;7.65;;;1.48;;
42110;SDS011;27766;52.174;5.456;2023-01-15T09:22:22;6.63;;;2.15;;
42110;SDS011;27766;52.174;5.456;2023-01-15T09:24:49;9.50;;;1.65;;
42110;SDS011;27766;52.174;5.456;2023-01-15T09:27:16;8.50;;;1.55;;
42110;SDS011;27766;52.174;5.456;2023-01-15T09:29:43;10.75;;;1.67;;
42110;SDS011;27766;52.174;5.456;2023-01-15T09:32:10;8.45;;;2.50;;
42110;SDS011;27766;52.174;5.456;2023-01-15T09:34:38;11.75;;;1.73;;
42110;SDS011;27766;52.174;5.456;2023-01-15T09:37:05;6.68;;;1.70;;
42110;SDS011;27766;52.174;5.456;2023-01-15T09:39:32;9.70;;;1.75;;
42110;SDS011;27766;52.174;5.456;2023-01-15T09:42:03;8.07;;;1.45;;
42110;SDS011;27766;52.174;5.456;2023-01-15T09:47:39;6.90;;;1.80;;
42110;SDS011;27766;52.174;5.456;2023-01-15T09:55:16;6.43;;;1.30;;
42110;SDS011;27766;52.174;5.456;2023-01-15T09:57:57;5.43;;;1.55;;
42110;SDS011;27766;52.174;5.456;2023-01-15T10:00:28;11.23;;;1.92;;
42110;SDS011;27766;52.174;5.456;2023-01-15T10:08:44;9.20;;;1.92;;
42110;SDS011;27766;52.174;5.456;2023-01-15T10:16:17;7.13;;;1.90;;
42110;SDS011;27766;52.174;5.456;2023-01-15T10:18:50;9.43;;;1.67;;
42110;SDS011;27766;52.174;5.456;2023-01-15T10:21:25;6.55;;;1.48;;
42110;SDS011;27766;52.174;5.456;2023-01-15T10:24:11;10.60;;;2.15;;
42110;SDS011;27766;52.174;5.456;2023-01-15T10:26:55;6.03;;;1.40;;
42110;SDS011;27766;52.174;5.456;2023-01-15T10:29:44;7.13;;;1.58;;
42110;SDS011;27766;52.174;5.456;2023-01-15T10:43:16;13.57;;;2.10;;
42110;SDS011;27766;52.174;5.456;2023-01-15T10:45:54;6.18;;;1.60;;
42110;SDS011;27766;52.174;5.456;2023-01-15T10:48:33;9.90;;;1.55;;
42110;SDS011;27766;52.174;5.456;2023-01-15T10:51:15;5.07;;;1.50;;
42110;SDS011;27766;52.174;5.456;2023-01-15T10:56:21;8.35;;;3.05;;
42110;SDS011;27766;52.174;5.456;2023-01-15T10:59:00;7.70;;;1.65;;
42110;SDS011;27766;52.174;5.456;2023-01-15T11:01:31;8.25;;;1.98;;
42110;SDS011;27766;52.174;5.456;2023-01-15T11:03:58;6.15;;;1.23;;
42110;SDS011;27766;52.174;5.456;2023-01-15T11:06:28;8.43;;;1.55;;
42110;SDS011;27766;52.174;5.456;2023-01-15T11:08:58;4.82;;;1.38;;
42110;SDS011;27766;52.174;5.456;2023-01-15T11:14:34;5.13;;;1.23;;
42110;SDS011;27766;52.174;5.456;2023-01-15T11:17:22;7.97;;;1.33;;
42110;SDS011;27766;52.174;5.456;2023-01-15T11:22:48;8.82;;;1.85;;
42110;SDS011;27766;52.174;5.456;2023-01-15T11:25:29;8.68;;;2.30;;
42110;SDS011;27766;52.174;5.456;2023-01-15T11:27:58;18.45;;;2.45;;
42110;SDS011;27766;52.174;5.456;2023-01-15T11:30:30;11.38;;;1.63;;
42110;SDS011;27766;52.174;5.456;2023-01-15T11:33:00;5.05;;;1.70;;
42110;SDS011;27766;52.174;5.456;2023-01-15T11:35:32;13.73;;;1.83;;
42110;SDS011;27766;52.174;5.456;2023-01-15T11:38:21;6.00;;;1.60;;
42110;SDS011;27766;52.174;5.456;2023-01-15T11:40:53;5.03;;;2.15;;
42110;SDS011;27766;52.174;5.456;2023-01-15T11:43:23;6.88;;;1.40;;
42110;SDS011;27766;52.174;5.456;2023-01-15T11:49:25;4.82;;;1.65;;
42110;SDS011;27766;52.174;5.456;2023-01-15T11:52:21;8.07;;;2.08;;
42110;SDS011;27766;52.174;5.456;2023-01-15T11:54:50;6.50;;;1.05;;
42110;SDS011;27766;52.174;5.456;2023-01-15T11:57:24;7.78;;;1.85;;
42110;SDS011;27766;52.174;5.456;2023-01-15T11:59:54;8.60;;;2.15;;
42110;SDS011;27766;52.174;5.456;2023-01-15T12:02:31;5.25;;;1.45;;
42110;SDS011;27766;52.174;5.456;2023-01-15T12:05:29;6.85;;;1.50;;
42110;SDS011;27766;52.174;5.456;2023-01-15T12:08:09;12.32;;;1.63;;
42110;SDS011;27766;52.174;5.456;2023-01-15T12:10:52;11.20;;;2.20;;
42110;SDS011;27766;52.174;5.456;2023-01-15T12:24:56;6.05;;;1.70;;
42110;SDS011;27766;52.174;5.456;2023-01-15T12:30:23;4.43;;;1.60;;
42110;SDS011;27766;52.174;5.456;2023-01-15T12:35:47;8.75;;;1.98;;
42110;SDS011;27766;52.174;5.456;2023-01-15T12:38:35;6.78;;;2.35;;
42110;SDS011;27766;52.174;5.456;2023-01-15T12:41:33;7.50;;;1.80;;
42110;SDS011;27766;52.174;5.456;2023-01-15T12:44:54;10.45;;;2.10;;
42110;SDS011;27766;52.174;5.456;2023-01-15T12:50:34;14.32;;;2.67;;
42110;SDS011;27766;52.174;5.456;2023-01-15T12:56:18;9.80;;;2.05;;
42110;SDS011;27766;52.174;5.456;2023-01-15T12:58:54;8.70;;;2.03;;
42110;SDS011;27766;52.174;5.456;2023-01-15T13:01:49;6.15;;;2.05;;
42110;SDS011;27766;52.174;5.456;2023-01-15T13:07:11;7.95;;;1.63;;
42110;SDS011;27766;52.174;5.456;2023-01-15T13:09:43;12.23;;;2.05;;
42110;SDS011;27766;52.174;5.456;2023-01-15T13:12:17;5.93;;;2.47;;
42110;SDS011;27766;52.174;5.456;2023-01-15T13:14:44;8.00;;;2.17;;
42110;SDS011;27766;52.174;5.456;2023-01-15T13:23:17;10.32;;;2.60;;
42110;SDS011;27766;52.174;5.456;2023-01-15T13:37:13;12.70;;;3.00;;
42110;SDS011;27766;52.174;5.456;2023-01-15T13:39:48;7.82;;;2.40;;
42110;SDS011;27766;52.174;5.456;2023-01-15T13:42:19;10.02;;;2.95;;
42110;SDS011;27766;52.174;5.456;2023-01-15T13:45:02;16.48;;;2.88;;
42110;SDS011;27766;52.174;5.456;2023-01-15T13:47:34;11.40;;;1.80;;
42110;SDS011;27766;52.174;5.456;2023-01-15T13:50:05;10.82;;;1.73;;
42110;SDS011;27766;52.174;5.456;2023-01-15T13:52:40;11.25;;;2.22;;
42110;SDS011;27766;52.174;5.456;2023-01-15T13:57:36;14.80;;;2.53;;
42110;SDS011;27766;52.174;5.456;2023-01-15T14:00:07;13.38;;;2.10;;
42110;SDS011;27766;52.174;5.456;2023-01-15T14:02:52;11.13;;;2.08;;
42110;SDS011;27766;52.174;5.456;2023-01-15T14:07:48;6.93;;;1.88;;
42110;SDS011;27766;52.174;5.456;2023-01-15T14:18:38;7.43;;;2.03;;
42110;SDS011;27766;52.174;5.456;2023-01-15T14:26:55;9.65;;;2.42;;
42110;SDS011;27766;52.174;5.456;2023-01-15T14:29:54;5.80;;;1.65;;
42110;SDS011;27766;52.174;5.456;2023-01-15T14:35:11;8.10;;;2.65;;
42110;SDS011;27766;52.174;5.456;2023-01-15T14:37:58;13.95;;;3.47;;
42110;SDS011;27766;52.174;5.456;2023-01-15T14:40:32;8.50;;;2.05;;
42110;SDS011;27766;52.174;5.456;2023-01-15T14:43:01;6.15;;;1.83;;
42110;SDS011;27766;52.174;5.456;2023-01-15T14:48:52;13.40;;;2.47;;
42110;SDS011;27766;52.174;5.456;2023-01-15T14:50:53;16.80;;;2.33;;
42110;SDS011;27766;52.174;5.456;2023-01-15T14:53:35;6.13;;;1.63;;
42110;SDS011;27766;52.174;5.456;2023-01-15T14:56:12;13.48;;;1.73;;
42110;SDS011;27766;52.174;5.456;2023-01-15T15:01:49;7.35;;;2.08;;
42110;SDS011;27766;52.174;5.456;2023-01-15T15:09:47;5.45;;;1.70;;
42110;SDS011;27766;52.174;5.456;2023-01-15T15:14:59;5.68;;;1.80;;
42110;SDS011;27766;52.174;5.456;2023-01-15T15:17:36;11.18;;;2.70;;
42110;SDS011;27766;52.174;5.456;2023-01-15T15:23:18;10.63;;;3.00;;
42110;SDS011;27766;52.174;5.456;2023-01-15T15:26:00;9.02;;;2.40;;
42110;SDS011;27766;52.174;5.456;2023-01-15T15:28:29;7.30;;;2.58;;
42110;SDS011;27766;52.174;5.456;2023-01-15T15:30:57;9.63;;;3.60;;
42110;SDS011;27766;52.174;5.456;2023-01-15T15:33:31;11.50;;;2.72;;
42110;SDS011;27766;52.174;5.456;2023-01-15T15:36:04;16.60;;;4.15;;
42110;SDS011;27766;52.174;5.456;2023-01-15T15:38:33;12.25;;;3.13;;
42110;SDS011;27766;52.174;5.456;2023-01-15T15:41:01;15.00;;;4.25;;
42110;SDS011;27766;52.174;5.456;2023-01-15T15:43:48;14.50;;;4.50;;
42110;SDS011;27766;52.174;5.456;2023-01-15T15:46:38;8.52;;;2.28;;
42110;SDS011;27766;52.174;5.456;2023-01-15T15:49:39;20.15;;;3.45;;
42110;SDS011;27766;52.174;5.456;2023-01-15T15:52:20;15.27;;;3.38;;
42110;SDS011;27766;52.174;5.456;2023-01-15T15:54:56;10.60;;;2.38;;
42110;SDS011;27766;52.174;5.456;2023-01-15T15:57:27;15.95;;;4.72;;
42110;SDS011;27766;52.174;5.456;2023-01-15T15:59:57;8.15;;;2.97;;
42110;SDS011;27766;52.174;5.456;2023-01-15T16:02:47;11.68;;;2.78;;
42110;SDS011;27766;52.174;5.456;2023-01-15T16:07:52;6.57;;;3.58;;
42110;SDS011;27766;52.174;5.456;2023-01-15T16:10:24;8.25;;;2.50;;
42110;SDS011;27766;52.174;5.456;2023-01-15T16:12:56;12.30;;;2.35;;
42110;SDS011;27766;52.174;5.456;2023-01-15T16:15:28;7.15;;;2.50;;
42110;SDS011;27766;52.174;5.456;2023-01-15T16:17:59;14.00;;;2.63;;
42110;SDS011;27766;52.174;5.456;2023-01-15T16:20:28;6.10;;;2.13;;
42110;SDS011;27766;52.174;5.456;2023-01-15T16:22:59;4.22;;;1.23;;
42110;SDS011;27766;52.174;5.456;2023-01-15T16:25:32;4.82;;;1.35;;
42110;SDS011;27766;52.174;5.456;2023-01-15T16:28:00;5.00;;;1.00;;
42110;SDS011;27766;52.174;5.456;2023-01-15T16:30:28;7.32;;;1.92;;
42110;SDS011;27766;52.174;5.456;2023-01-15T16:33:02;4.80;;;1.92;;
42110;SDS011;27766;52.174;5.456;2023-01-15T16:35:33;8.38;;;1.70;;
42110;SDS011;27766;52.174;5.456;2023-01-15T16:38:03;7.25;;;1.75;;
42110;SDS011;27766;52.174;5.456;2023-01-15T16:40:37;8.25;;;2.20;;
42110;SDS011;27766;52.174;5.456;2023-01-15T16:43:06;6.18;;;1.75;;
42110;SDS011;27766;52.174;5.456;2023-01-15T16:45:39;6.88;;;1.40;;
42110;SDS011;27766;52.174;5.456;2023-01-15T16:48:23;7.88;;;2.75;;
42110;SDS011;27766;52.174;5.456;2023-01-15T16:50:55;2.28;;;1.25;;
42110;SDS011;27766;52.174;5.456;2023-01-15T16:53:27;6.82;;;1.77;;
42110;SDS011;27766;52.174;5.456;2023-01-15T16:56:22;9.30;;;1.60;;
42110;SDS011;27766;52.174;5.456;2023-01-15T16:59:52;7.10;;;2.35;;
42110;SDS011;27766;52.174;5.456;2023-01-15T17:02:02;10.07;;;2.67;;
42110;SDS011;27766;52.174;5.456;2023-01-15T17:04:40;8.32;;;2.60;;
42110;SDS011;27766;52.174;5.456;2023-01-15T17:07:18;8.73;;;3.20;;
42110;SDS011;27766;52.174;5.456;2023-01-15T17:09:53;20.30;;;7.38;;
42110;SDS011;27766;52.174;5.456;2023-01-15T17:14:49;9.93;;;4.70;;
42110;SDS011;27766;52.174;5.456;2023-01-15T17:19:47;11.70;;;3.53;;
42110;SDS011;27766;52.174;5.456;2023-01-15T17:24:58;13.48;;;5.70;;
42110;SDS011;27766;52.174;5.456;2023-01-15T17:27:27;13.07;;;5.60;;
42110;SDS011;27766;52.174;5.456;2023-01-15T17:29:55;17.58;;;4.70;;
42110;SDS011;27766;52.174;5.456;2023-01-15T17:32:24;8.40;;;3.53;;
42110;SDS011;27766;52.174;5.456;2023-01-15T17:35:01;10.13;;;3.40;;
42110;SDS011;27766;52.174;5.456;2023-01-15T17:37:29;7.75;;;3.95;;
42110;SDS011;27766;52.174;5.456;2023-01-15T17:39:57;12.95;;;3.38;;
42110;SDS011;27766;52.174;5.456;2023-01-15T17:42:25;20.13;;;4.55;;
42110;SDS011;27766;52.174;5.456;2023-01-15T17:44:52;7.95;;;3.80;;
42110;SDS011;27766;52.174;5.456;2023-01-15T17:47:19;8.80;;;3.03;;
42110;SDS011;27766;52.174;5.456;2023-01-15T17:49:46;8.50;;;3.05;;
42110;SDS011;27766;52.174;5.456;2023-01-15T17:52:15;10.43;;;3.90;;